createdAt,value
2018-12-16T00:00:11.194Z,-3.09
2018-12-16T00:02:42.790Z,-3.10
2018-12-16T00:05:12.996Z,-3.11
2018-12-16T00:07:40.836Z,-3.07
2018-12-16T00:10:08.516Z,-3.00
2018-12-16T00:12:36.077Z,-3.03
2018-12-16T00:15:03.746Z,-2.93
2018-12-16T00:17:31.309Z,-2.85
2018-12-16T00:19:58.877Z,-2.88
2018-12-16T00:22:29.850Z,-2.86
2018-12-16T00:24:56.962Z,-2.83
2018-12-16T00:27:26.256Z,-2.78
2018-12-16T00:29:53.806Z,-2.75
2018-12-16T00:32:21.374Z,-2.73
2018-12-16T00:34:48.936Z,-2.61
2018-12-16T00:37:16.499Z,-2.56
2018-12-16T00:39:44.051Z,-2.57
2018-12-16T00:42:11.654Z,-2.56
2018-12-16T00:44:39.547Z,-2.50
2018-12-16T00:47:07.110Z,-2.60
2018-12-16T00:49:35.696Z,-2.55
2018-12-16T00:52:03.354Z,-2.57
2018-12-16T00:54:30.910Z,-2.60
2018-12-16T00:56:58.477Z,-2.59
2018-12-16T00:59:26.267Z,-2.57
2018-12-16T01:01:53.973Z,-2.54
2018-12-16T01:04:21.802Z,-2.55
2018-12-16T01:06:50.382Z,-2.55
2018-12-16T01:09:19.894Z,-2.56
2018-12-16T01:11:47.501Z,-2.53
2018-12-16T01:14:15.066Z,-2.52
2018-12-16T01:16:42.628Z,-2.48
2018-12-16T01:19:10.194Z,-2.46
2018-12-16T01:21:37.824Z,-2.47
2018-12-16T01:24:05.506Z,-2.45
2018-12-16T01:26:33.065Z,-2.45
2018-12-16T01:29:00.630Z,-2.42
2018-12-16T01:31:28.198Z,-2.40
2018-12-16T01:33:55.752Z,-2.39
2018-12-16T01:36:23.320Z,-2.34
2018-12-16T01:38:51.483Z,-2.36
2018-12-16T01:41:20.957Z,-2.36
2018-12-16T01:43:50.694Z,-2.35
2018-12-16T01:46:18.261Z,-2.27
2018-12-16T01:48:45.815Z,-2.30
2018-12-16T01:51:14.047Z,-2.30
2018-12-16T01:53:44.580Z,-2.29
2018-12-16T01:56:12.858Z,-2.26
2018-12-16T01:58:40.410Z,-2.31
2018-12-16T02:01:07.980Z,-2.33
2018-12-16T02:03:35.550Z,-2.36
2018-12-16T02:06:03.918Z,-2.34
2018-12-16T02:08:34.385Z,-2.28
2018-12-16T02:11:02.274Z,-2.31
2018-12-16T02:13:29.845Z,-2.31
2018-12-16T02:15:58.499Z,-2.23
2018-12-16T02:18:27.129Z,-2.24
2018-12-16T02:20:56.789Z,-2.24
2018-12-16T02:23:25.754Z,-2.26
2018-12-16T02:25:53.315Z,-2.25
2018-12-16T02:28:20.870Z,-2.27
2018-12-16T02:30:48.426Z,-2.27
2018-12-16T02:33:15.982Z,-2.29
2018-12-16T02:35:43.658Z,-2.22
2018-12-16T02:38:11.318Z,-2.18
2018-12-16T02:40:38.982Z,-2.28
2018-12-16T02:43:07.728Z,-2.27
2018-12-16T02:45:35.280Z,-2.27
2018-12-16T02:48:02.914Z,-2.25
2018-12-16T02:50:30.507Z,-2.20
2018-12-16T02:53:04.521Z,-2.08
2018-12-16T02:55:27.668Z,-2.07
2018-12-16T02:57:55.297Z,-2.16
2018-12-16T03:00:22.864Z,-2.20
2018-12-16T03:02:50.415Z,-2.22
2018-12-16T03:05:17.985Z,-2.18
2018-12-16T03:07:47.151Z,-2.17
2018-12-16T03:10:14.710Z,-2.22
2018-12-16T03:12:42.274Z,-2.32
2018-12-16T03:15:09.942Z,-2.40
2018-12-16T03:17:37.504Z,-2.33
2018-12-16T03:20:07.324Z,-2.24
2018-12-16T03:22:34.926Z,-2.19
2018-12-16T03:25:02.490Z,-2.22
2018-12-16T03:27:30.214Z,-2.19
2018-12-16T03:29:57.813Z,-2.14
2018-12-16T03:32:25.377Z,-2.16
2018-12-16T03:34:53.083Z,-2.04
2018-12-16T03:37:22.015Z,-2.08
2018-12-16T03:39:51.460Z,-2.01
2018-12-16T03:42:19.542Z,-1.99
2018-12-16T03:44:47.114Z,-2.07
2018-12-16T03:47:14.680Z,-2.02
2018-12-16T03:49:42.240Z,-2.02
2018-12-16T03:52:09.811Z,-2.10
2018-12-16T03:54:37.538Z,-2.03
2018-12-16T03:57:06.947Z,-2.09
2018-12-16T03:59:34.682Z,-2.08
2018-12-16T04:02:02.253Z,-2.06
2018-12-16T04:04:29.927Z,-2.07
2018-12-16T04:06:57.493Z,-2.01
2018-12-16T04:09:25.052Z,-1.99
2018-12-16T04:11:52.933Z,-2.00
2018-12-16T04:14:21.680Z,-1.96
2018-12-16T04:16:50.670Z,-1.79
2018-12-16T04:19:18.517Z,-1.86
2018-12-16T04:21:46.121Z,-1.70
2018-12-16T04:24:13.689Z,-1.80
2018-12-16T04:26:41.257Z,-1.81
2018-12-16T04:29:08.825Z,-1.83
2018-12-16T04:31:36.386Z,-1.89
2018-12-16T04:34:03.966Z,-2.01
2018-12-16T04:36:31.517Z,-2.00
2018-12-16T04:38:59.156Z,-1.93
2018-12-16T04:41:26.768Z,-1.90
2018-12-16T04:43:54.334Z,-1.92
2018-12-16T04:46:23.349Z,-1.89
2018-12-16T04:48:52.588Z,-1.94
2018-12-16T04:51:20.878Z,-1.97
2018-12-16T04:53:48.453Z,-1.88
2018-12-16T04:56:16.014Z,-1.84
2018-12-16T04:58:43.577Z,-1.79
2018-12-16T05:01:11.181Z,-1.77
2018-12-16T05:03:38.747Z,-1.80
2018-12-16T05:06:06.323Z,-1.82
2018-12-16T05:08:33.886Z,-1.74
2018-12-16T05:11:01.508Z,-1.62
2018-12-16T05:13:29.145Z,-1.73
2018-12-16T05:15:56.712Z,-1.78
2018-12-16T05:18:24.428Z,-1.74
2018-12-16T05:20:51.998Z,-1.72
2018-12-16T05:23:19.561Z,-1.64
2018-12-16T05:25:47.257Z,-1.62
2018-12-16T05:28:15.439Z,-1.56
2018-12-16T05:30:44.452Z,-1.63
2018-12-16T05:33:13.335Z,-1.61
2018-12-16T05:35:40.895Z,-1.64
2018-12-16T05:38:08.481Z,-1.73
2018-12-16T05:40:36.066Z,-1.88
2018-12-16T05:43:03.634Z,-1.88
2018-12-16T05:45:31.191Z,-1.88
2018-12-16T05:47:58.758Z,-1.88
2018-12-16T05:50:26.319Z,-1.84
2018-12-16T05:52:53.887Z,-1.82
2018-12-16T05:55:21.449Z,-1.80
2018-12-16T05:57:49.016Z,-1.78
2018-12-16T06:00:16.576Z,-1.81
2018-12-16T06:02:45.697Z,-1.76
2018-12-16T06:05:14.709Z,-1.78
2018-12-16T06:07:42.932Z,-1.81
2018-12-16T06:10:10.577Z,-1.82
2018-12-16T06:12:38.231Z,-1.86
2018-12-16T06:15:06.027Z,-1.90
2018-12-16T06:17:33.675Z,-1.86
2018-12-16T06:20:01.248Z,-1.84
2018-12-16T06:22:28.821Z,-1.81
2018-12-16T06:24:56.383Z,-1.73
2018-12-16T06:27:23.944Z,-1.71
2018-12-16T06:29:51.918Z,-1.69
2018-12-16T06:32:19.489Z,-1.61
2018-12-16T06:34:47.160Z,-1.60
2018-12-16T06:37:14.718Z,-1.53
2018-12-16T06:39:42.693Z,-1.55
2018-12-16T06:42:12.503Z,-1.62
2018-12-16T06:44:40.933Z,-1.68
2018-12-16T06:47:08.504Z,-1.69
2018-12-16T06:49:36.070Z,-1.63
2018-12-16T06:52:03.642Z,-1.69
2018-12-16T06:54:31.195Z,-1.74
2018-12-16T06:56:58.775Z,-1.73
2018-12-16T06:59:26.351Z,-1.70
2018-12-16T07:01:55.714Z,-1.66
2018-12-16T07:04:23.513Z,-1.68
2018-12-16T07:06:51.085Z,-1.70
2018-12-16T07:09:18.665Z,-1.75
2018-12-16T07:11:46.226Z,-1.68
2018-12-16T07:14:13.786Z,-1.70
2018-12-16T07:16:41.349Z,-1.79
2018-12-16T07:19:08.933Z,-1.77
2018-12-16T07:21:36.512Z,-1.75
2018-12-16T07:24:09.146Z,-1.62
2018-12-16T07:26:35.578Z,-1.60
2018-12-16T07:29:03.812Z,-1.66
2018-12-16T07:31:31.379Z,-1.64
2018-12-16T07:33:58.931Z,-1.57
2018-12-16T07:36:26.498Z,-1.54
2018-12-16T07:38:54.097Z,-1.49
2018-12-16T07:41:21.670Z,-1.42
2018-12-16T07:43:49.300Z,-1.34
2018-12-16T07:46:16.892Z,-1.42
2018-12-16T07:48:44.563Z,-1.44
2018-12-16T07:51:12.281Z,-1.32
2018-12-16T07:53:39.859Z,-1.36
2018-12-16T07:56:07.466Z,-1.37
2018-12-16T07:58:36.118Z,-1.37
2018-12-16T08:01:06.387Z,-1.31
2018-12-16T08:03:34.355Z,-1.28
2018-12-16T08:06:02.267Z,-1.19
2018-12-16T08:08:29.827Z,-1.21
2018-12-16T08:10:57.496Z,-1.19
2018-12-16T08:13:25.055Z,-1.18
2018-12-16T08:15:52.630Z,-1.11
2018-12-16T08:18:20.187Z,-1.09
2018-12-16T08:20:47.749Z,-1.02
2018-12-16T08:23:15.312Z,-1.05
2018-12-16T08:25:42.912Z,-0.99
2018-12-16T08:28:10.598Z,-0.99
2018-12-16T08:30:39.068Z,-0.94
2018-12-16T08:33:07.941Z,-0.86
2018-12-16T08:35:36.807Z,-0.83
2018-12-16T08:38:04.382Z,-0.81
2018-12-16T08:40:31.944Z,-0.78
2018-12-16T08:42:59.509Z,-0.69
2018-12-16T08:45:27.200Z,-0.62
2018-12-16T08:47:54.790Z,-0.57
2018-12-16T08:50:22.380Z,-0.56
2018-12-16T08:52:50.049Z,-0.43
2018-12-16T08:55:17.617Z,-0.42
2018-12-16T08:57:45.196Z,-0.38
2018-12-16T09:00:12.951Z,-0.38
2018-12-16T09:02:40.508Z,-0.53
2018-12-16T09:05:08.104Z,-0.44
2018-12-16T09:07:37.424Z,-0.50
2018-12-16T09:10:08.286Z,-0.46
2018-12-16T09:12:35.977Z,-0.40
2018-12-16T09:15:05.465Z,-0.31
2018-12-16T09:17:33.133Z,-0.26
2018-12-16T09:20:00.726Z,-0.23
2018-12-16T09:22:28.380Z,-0.02
2018-12-16T09:24:56.088Z,-0.03
2018-12-16T09:27:23.664Z,-0.09
2018-12-16T09:29:51.243Z,-0.27
2018-12-16T09:32:18.925Z,-0.19
2018-12-16T09:34:46.474Z,-0.06
2018-12-16T09:37:14.044Z,0.11
2018-12-16T09:39:41.617Z,0.50
2018-12-16T09:42:09.178Z,0.47
2018-12-16T09:44:37.058Z,0.38
2018-12-16T09:47:04.738Z,0.29
2018-12-16T09:49:32.412Z,0.33
2018-12-16T09:52:00.686Z,0.40
2018-12-16T09:54:30.450Z,0.30
2018-12-16T09:56:59.307Z,0.33
2018-12-16T09:59:26.998Z,0.26
2018-12-16T10:01:54.552Z,0.20
2018-12-16T10:04:22.128Z,0.41
2018-12-16T10:06:49.838Z,0.44
2018-12-16T10:09:17.403Z,0.42
2018-12-16T10:11:44.959Z,0.60
2018-12-16T10:14:12.562Z,0.71
2018-12-16T10:16:40.179Z,0.59
2018-12-16T10:19:07.982Z,0.56
2018-12-16T10:21:35.725Z,0.40
2018-12-16T10:24:03.590Z,0.56
2018-12-16T10:26:33.906Z,0.71
2018-12-16T10:29:02.099Z,0.47
2018-12-16T10:31:32.190Z,0.22
2018-12-16T10:33:59.915Z,0.22
2018-12-16T10:36:27.474Z,0.14
2018-12-16T10:38:55.078Z,0.08
2018-12-16T10:41:22.635Z,0.03
2018-12-16T10:43:50.323Z,0.07
2018-12-16T10:46:17.882Z,0.05
2018-12-16T10:48:45.479Z,0.14
2018-12-16T10:51:13.466Z,0.25
2018-12-16T10:53:42.674Z,0.41
2018-12-16T10:56:12.009Z,0.29
2018-12-16T10:58:39.947Z,0.48
2018-12-16T11:01:13.162Z,0.71
2018-12-16T11:03:40.718Z,0.59
2018-12-16T11:06:08.298Z,0.59
2018-12-16T11:08:35.870Z,0.68
2018-12-16T11:11:03.436Z,0.67
2018-12-16T11:13:31.470Z,0.60
2018-12-16T11:16:00.763Z,0.63
2018-12-16T11:18:29.680Z,0.71
2018-12-16T11:20:59.477Z,0.62
2018-12-16T11:23:27.218Z,0.73
2018-12-16T11:25:54.796Z,0.78
2018-12-16T11:28:24.018Z,0.85
2018-12-16T11:30:53.184Z,0.98
2018-12-16T11:33:20.773Z,1.07
2018-12-16T11:35:48.409Z,0.91
2018-12-16T11:38:16.044Z,0.89
2018-12-16T11:40:43.704Z,1.01
2018-12-16T11:43:11.280Z,1.06
2018-12-16T11:45:38.869Z,0.96
2018-12-16T11:48:06.471Z,1.05
2018-12-16T11:50:34.028Z,1.18
2018-12-16T11:53:01.582Z,1.09
2018-12-16T11:55:29.728Z,1.12
2018-12-16T11:57:58.754Z,1.11
2018-12-16T12:00:27.526Z,1.34
2018-12-16T12:02:55.086Z,1.33
2018-12-16T12:05:22.652Z,1.34
2018-12-16T12:07:50.229Z,1.41
2018-12-16T12:10:17.794Z,1.31
2018-12-16T12:12:45.460Z,1.31
2018-12-16T12:15:13.018Z,1.30
2018-12-16T12:17:40.584Z,1.37
2018-12-16T12:20:08.366Z,1.37
2018-12-16T12:22:35.922Z,1.47
2018-12-16T12:25:04.306Z,1.41
2018-12-16T12:27:31.893Z,1.22
2018-12-16T12:29:59.582Z,1.17
2018-12-16T12:32:28.259Z,1.25
2018-12-16T12:34:56.796Z,1.27
2018-12-16T12:37:26.042Z,1.28
2018-12-16T12:39:53.966Z,1.21
2018-12-16T12:42:21.573Z,1.17
2018-12-16T12:44:49.137Z,1.24
2018-12-16T12:47:16.709Z,1.34
2018-12-16T12:49:45.138Z,1.35
2018-12-16T12:52:12.968Z,1.30
2018-12-16T12:54:41.492Z,1.30
2018-12-16T12:57:09.057Z,1.38
2018-12-16T12:59:36.663Z,1.34
2018-12-16T13:02:04.339Z,1.40
2018-12-16T13:04:31.888Z,1.50
2018-12-16T13:06:59.498Z,1.41
2018-12-16T13:09:27.058Z,1.48
2018-12-16T13:11:54.623Z,1.51
2018-12-16T13:14:22.607Z,1.46
2018-12-16T13:16:50.741Z,1.48
2018-12-16T13:19:19.586Z,1.58
2018-12-16T13:21:48.471Z,1.64
2018-12-16T13:24:17.377Z,1.65
2018-12-16T13:26:45.302Z,1.63
2018-12-16T13:29:12.864Z,1.65
2018-12-16T13:31:40.423Z,1.70
2018-12-16T13:34:08.097Z,1.70
2018-12-16T13:36:35.846Z,1.68
2018-12-16T13:39:05.523Z,1.76
2018-12-16T13:41:33.622Z,1.84
2018-12-16T13:44:03.066Z,1.84
2018-12-16T13:46:32.004Z,1.83
2018-12-16T13:48:59.550Z,1.95
2018-12-16T13:51:27.121Z,1.86
2018-12-16T13:53:54.680Z,1.84
2018-12-16T13:56:22.242Z,1.84
2018-12-16T13:58:49.791Z,1.91
2018-12-16T14:01:17.348Z,1.95
2018-12-16T14:03:44.905Z,1.94
2018-12-16T14:06:12.461Z,1.95
2018-12-16T14:08:40.026Z,1.89
2018-12-16T14:11:07.601Z,1.98
2018-12-16T14:13:35.148Z,2.07
2018-12-16T14:16:02.694Z,2.19
2018-12-16T14:18:30.258Z,2.03
2018-12-16T14:20:57.805Z,1.97
2018-12-16T14:23:26.477Z,2.02
2018-12-16T14:25:55.253Z,2.00
2018-12-16T14:28:25.890Z,1.98
2018-12-16T14:30:54.330Z,1.96
2018-12-16T14:33:23.924Z,1.89
2018-12-16T14:35:51.524Z,1.84
2018-12-16T14:38:19.478Z,1.85
2018-12-16T14:40:47.084Z,1.88
2018-12-16T14:43:15.419Z,1.88
2018-12-16T14:45:43.016Z,1.92
2018-12-16T14:48:11.914Z,1.92
2018-12-16T14:50:39.539Z,1.84
2018-12-16T14:53:07.131Z,1.85
2018-12-16T14:55:34.697Z,1.82
2018-12-16T14:58:02.266Z,1.87
2018-12-16T15:00:30.236Z,1.87
2018-12-16T15:02:57.813Z,1.82
2018-12-16T15:05:25.367Z,1.82
2018-12-16T15:07:52.924Z,1.84
2018-12-16T15:10:20.593Z,1.82
2018-12-16T15:12:48.145Z,1.93
2018-12-16T15:15:16.435Z,1.98
2018-12-16T15:17:44.265Z,1.92
2018-12-16T15:20:11.892Z,1.86
2018-12-16T15:22:40.332Z,1.80
2018-12-16T15:25:08.015Z,1.82
2018-12-16T15:27:35.613Z,1.77
2018-12-16T15:30:04.645Z,1.77
2018-12-16T15:32:32.199Z,1.77
2018-12-16T15:34:59.842Z,1.75
2018-12-16T15:37:28.171Z,1.74
2018-12-16T15:39:55.761Z,1.73
2018-12-16T15:42:23.436Z,1.73
2018-12-16T15:44:51.116Z,1.73
2018-12-16T15:47:18.721Z,1.73
2018-12-16T15:49:46.290Z,1.75
2018-12-16T15:52:13.845Z,1.72
2018-12-16T15:54:41.438Z,1.76
2018-12-16T15:57:09.032Z,1.74
2018-12-16T15:59:36.601Z,1.75
2018-12-16T16:02:04.259Z,1.83
2018-12-16T16:04:31.832Z,1.70
2018-12-16T16:06:59.449Z,1.62
2018-12-16T16:09:27.110Z,1.58
2018-12-16T16:11:54.722Z,1.61
2018-12-16T16:14:22.422Z,1.61
2018-12-16T16:16:49.987Z,1.62
2018-12-16T16:19:17.583Z,1.61
2018-12-16T16:21:47.220Z,1.77
2018-12-16T16:24:14.790Z,1.71
2018-12-16T16:26:42.449Z,1.74
2018-12-16T16:29:10.058Z,1.73
2018-12-16T16:31:38.565Z,1.86
2018-12-16T16:34:06.523Z,1.91
2018-12-16T16:36:34.297Z,1.73
2018-12-16T16:39:01.866Z,1.68
2018-12-16T16:41:29.426Z,1.77
2018-12-16T16:43:56.991Z,1.87
2018-12-16T16:46:25.382Z,1.79
2018-12-16T16:48:53.279Z,1.75
2018-12-16T16:51:20.838Z,1.85
2018-12-16T16:53:48.390Z,1.74
2018-12-16T16:56:22.835Z,1.69
2018-12-16T16:58:46.581Z,1.67
2018-12-16T17:01:14.756Z,1.65
2018-12-16T17:03:42.788Z,1.62
2018-12-16T17:06:10.378Z,1.64
2018-12-16T17:08:38.301Z,1.64
2018-12-16T17:11:06.103Z,1.66
2018-12-16T17:13:33.701Z,1.64
2018-12-16T17:16:01.288Z,1.64
2018-12-16T17:18:28.867Z,1.65
2018-12-16T17:20:56.867Z,1.68
2018-12-16T17:23:24.439Z,1.67
2018-12-16T17:25:52.030Z,1.67
2018-12-16T17:28:19.603Z,1.64
2018-12-16T17:30:47.206Z,1.65
2018-12-16T17:33:15.142Z,1.70
2018-12-16T17:35:42.761Z,1.70
2018-12-16T17:38:10.361Z,1.69
2018-12-16T17:40:37.946Z,1.63
2018-12-16T17:43:05.693Z,1.68
2018-12-16T17:45:33.525Z,1.90
2018-12-16T17:48:01.109Z,1.86
2018-12-16T17:50:28.837Z,1.89
2018-12-16T17:52:56.577Z,1.94
2018-12-16T17:55:24.906Z,2.11
2018-12-16T17:57:52.508Z,2.24
2018-12-16T18:00:20.338Z,1.99
2018-12-16T18:02:47.926Z,2.04
2018-12-16T18:05:15.500Z,2.05
2018-12-16T18:07:43.092Z,1.84
2018-12-16T18:10:11.575Z,2.08
2018-12-16T18:12:39.182Z,2.11
2018-12-16T18:15:08.874Z,2.15
2018-12-16T18:17:36.515Z,2.18
2018-12-16T18:20:07.243Z,2.20
2018-12-16T18:22:34.827Z,2.17
2018-12-16T18:25:02.389Z,2.20
2018-12-16T18:27:30.113Z,2.09
2018-12-16T18:29:57.669Z,2.07
2018-12-16T18:32:25.442Z,1.92
2018-12-16T18:34:53.014Z,1.82
2018-12-16T18:37:21.100Z,1.75
2018-12-16T18:39:48.747Z,1.77
2018-12-16T18:42:16.803Z,1.75
2018-12-16T18:44:44.383Z,1.69
2018-12-16T18:47:11.932Z,1.68
2018-12-16T18:49:39.649Z,1.67
2018-12-16T18:52:07.264Z,1.62
2018-12-16T18:54:34.898Z,1.65
2018-12-16T18:57:07.215Z,1.63
2018-12-16T18:59:32.682Z,1.63
2018-12-16T19:02:00.246Z,1.62
2018-12-16T19:04:27.816Z,1.61
2018-12-16T19:06:56.653Z,1.59
2018-12-16T19:09:24.407Z,1.61
2018-12-16T19:11:51.967Z,1.61
2018-12-16T19:14:19.818Z,1.59
2018-12-16T19:16:47.667Z,1.60
2018-12-16T19:19:15.439Z,1.77
2018-12-16T19:21:43.145Z,1.65
2018-12-16T19:24:10.737Z,1.62
2018-12-16T19:26:38.312Z,1.59
2018-12-16T19:29:06.843Z,1.60
2018-12-16T19:31:35.872Z,1.88
2018-12-16T19:34:03.675Z,1.88
2018-12-16T19:36:31.251Z,1.90
2018-12-16T19:38:58.966Z,1.75
2018-12-16T19:41:26.636Z,1.67
2018-12-16T19:43:54.215Z,1.62
2018-12-16T19:46:21.975Z,1.61
2018-12-16T19:48:49.601Z,1.57
2018-12-16T19:51:17.425Z,1.61
2018-12-16T19:53:45.106Z,1.66
2018-12-16T19:56:13.419Z,1.91
2018-12-16T19:58:41.364Z,1.99
2018-12-16T20:01:08.999Z,1.85
2018-12-16T20:03:38.706Z,1.72
2018-12-16T20:06:12.387Z,1.65
2018-12-16T20:08:40.087Z,1.60
2018-12-16T20:11:08.443Z,1.56
2018-12-16T20:13:36.545Z,1.52
2018-12-16T20:16:04.337Z,1.61
2018-12-16T20:18:31.905Z,1.58
2018-12-16T20:20:59.501Z,1.51
2018-12-16T20:23:27.094Z,1.49
2018-12-16T20:25:54.738Z,1.46
2018-12-16T20:28:22.320Z,1.51
2018-12-16T20:30:49.983Z,1.55
2018-12-16T20:33:17.672Z,1.53
2018-12-16T20:35:45.251Z,1.70
2018-12-16T20:38:13.134Z,1.80
2018-12-16T20:40:41.051Z,2.00
2018-12-16T20:43:09.261Z,2.04
2018-12-16T20:45:36.851Z,2.25
2018-12-16T20:48:04.422Z,2.29
2018-12-16T20:50:32.072Z,2.24
2018-12-16T20:52:59.739Z,2.15
2018-12-16T20:55:27.525Z,1.95
2018-12-16T20:57:55.297Z,1.73
2018-12-16T21:00:22.926Z,1.72
2018-12-16T21:02:50.796Z,1.64
2018-12-16T21:05:18.365Z,1.59
2018-12-16T21:07:46.042Z,1.56
2018-12-16T21:10:13.633Z,1.62
2018-12-16T21:12:46.846Z,1.81
2018-12-16T21:15:20.365Z,1.68
2018-12-16T21:17:54.023Z,1.62
2018-12-16T21:20:21.652Z,1.56
2018-12-16T21:22:49.219Z,1.58
2018-12-16T21:25:16.792Z,1.60
2018-12-16T21:27:45.449Z,1.47
2018-12-16T21:30:13.895Z,1.46
2018-12-16T21:32:41.471Z,1.43
2018-12-16T21:35:09.035Z,1.41
2018-12-16T21:37:36.716Z,1.38
2018-12-16T21:40:05.404Z,1.34
2018-12-16T21:42:34.277Z,1.30
2018-12-16T21:45:02.226Z,1.25
2018-12-16T21:47:29.791Z,1.15
2018-12-16T21:49:57.909Z,1.10
2018-12-16T21:52:25.497Z,1.00
2018-12-16T21:54:53.111Z,0.93
2018-12-16T21:57:20.694Z,0.85
2018-12-16T21:59:48.861Z,0.78
2018-12-16T22:02:16.606Z,0.82
2018-12-16T22:04:45.012Z,0.84
2018-12-16T22:07:12.759Z,0.94
2018-12-16T22:09:40.323Z,0.82
2018-12-16T22:12:07.923Z,0.64
2018-12-16T22:14:35.524Z,0.70
2018-12-16T22:17:03.189Z,0.64
2018-12-16T22:19:31.486Z,0.51
2018-12-16T22:21:59.082Z,0.59
2018-12-16T22:24:27.128Z,0.70
2018-12-16T22:26:54.731Z,0.46
2018-12-16T22:29:22.367Z,0.37
2018-12-16T22:31:49.966Z,0.38
2018-12-16T22:34:17.542Z,0.67
2018-12-16T22:36:45.098Z,0.68
2018-12-16T22:39:12.737Z,0.50
2018-12-16T22:41:40.308Z,0.39
2018-12-16T22:44:08.034Z,0.32
2018-12-16T22:46:35.905Z,0.34
2018-12-16T22:49:03.511Z,0.34
2018-12-16T22:51:31.085Z,0.29
2018-12-16T22:53:58.704Z,0.26
2018-12-16T22:56:26.314Z,0.36
2018-12-16T22:58:54.727Z,0.54
2018-12-16T23:01:22.327Z,0.57
2018-12-16T23:03:50.111Z,0.42
2018-12-16T23:06:17.673Z,0.38
2018-12-16T23:08:46.315Z,0.40
2018-12-16T23:11:14.279Z,0.31
2018-12-16T23:13:41.881Z,0.25
2018-12-16T23:16:10.473Z,0.17
2018-12-16T23:18:38.961Z,0.13
2018-12-16T23:26:52.921Z,0.23
2018-12-16T23:29:20.547Z,0.31
2018-12-16T23:31:48.143Z,0.38
2018-12-16T23:34:15.952Z,0.46
2018-12-16T23:36:43.529Z,0.56
2018-12-16T23:39:11.102Z,0.69
2018-12-16T23:41:39.110Z,0.89
2018-12-16T23:44:08.193Z,0.98
2018-12-16T23:49:09.018Z,0.79
2018-12-16T23:51:36.569Z,0.82
2018-12-16T23:54:04.233Z,0.92
2018-12-16T23:56:31.910Z,0.88
2018-12-16T23:58:59.475Z,0.91
